Time;durP1;ratioP1;P1;durP2;ratioP2;P2;SDS_P1;SDS_P2;PMS_P1;PMS_P2;Temp;Humidity;BMP_temperature;BMP_pressure;BME280_temperature;BME280_humidity;BME280_pressure;Samples;Min_cycle;Max_cycle;Signal;HPM_P1;HPM_P2
2022/10/06 00:00:29;;;;;;;1.42;0.90;;;15.70;99.90;;;;;;5073510;28;20045;-79
2022/10/06 00:02:55;;;;;;;2.35;0.90;;;15.40;99.90;;;;;;5072912;28;20036;-79
2022/10/06 00:05:20;;;;;;;2.05;1.17;;;15.30;99.90;;;;;;5072115;28;20067;-76
2022/10/06 00:07:46;;;;;;;2.25;0.90;;;15.70;99.90;;;;;;5070670;28;20037;-76
2022/10/06 00:10:12;;;;;;;2.60;0.90;;;15.80;99.90;;;;;;5073487;28;20044;-76
2022/10/06 00:12:43;;;;;;;1.50;1.00;;;15.70;99.90;;;;;;5073408;28;20048;-80
2022/10/06 00:15:11;;;;;;;1.27;0.88;;;15.90;99.90;;;;;;5073379;28;20047;-76
2022/10/06 00:17:37;;;;;;;2.65;0.77;;;15.90;99.90;;;;;;5073414;28;20133;-76
2022/10/06 00:20:04;;;;;;;2.38;0.88;;;15.50;99.90;;;;;;5072078;28;20089;-77
2022/10/06 00:22:40;;;;;;;3.40;1.20;;;15.80;99.90;;;;;;5073672;28;20048;-79
2022/10/06 00:25:08;;;;;;;1.83;0.90;;;15.90;99.90;;;;;;5076379;28;20053;-81
2022/10/06 00:27:39;;;;;;;1.35;0.82;;;15.60;99.90;;;;;;5074799;28;20044;-80
2022/10/06 00:30:09;;;;;;;3.17;1.10;;;15.30;99.90;;;;;;5065217;28;20065;-77
2022/10/06 00:32:34;;;;;;;3.70;1.08;;;15.20;99.90;;;;;;5061477;28;20507;-77
2022/10/06 00:35:00;;;;;;;2.35;1.15;;;15.30;99.90;;;;;;5075398;28;20047;-77
2022/10/06 00:37:27;;;;;;;2.08;0.82;;;15.60;99.90;;;;;;5075098;28;20052;-77
2022/10/06 00:39:53;;;;;;;1.23;0.82;;;15.80;99.90;;;;;;5075445;28;20131;-76
2022/10/06 00:42:26;;;;;;;2.25;1.20;;;15.50;99.90;;;;;;5076346;28;20036;-76
2022/10/06 00:44:53;;;;;;;2.13;0.93;;;15.30;99.90;;;;;;5076556;28;20064;-76
2022/10/06 00:47:21;;;;;;;2.92;1.20;;;15.10;99.90;;;;;;5076367;28;20036;-79
2022/10/06 00:49:47;;;;;;;2.28;0.98;;;15.20;99.90;;;;;;5076542;28;20071;-76
2022/10/06 00:52:19;;;;;;;2.63;1.40;;;15.10;99.90;;;;;;5076644;28;20400;-79
2022/10/06 00:54:45;;;;;;;2.45;1.23;;;15.10;99.90;;;;;;5076758;28;20048;-75
2022/10/06 00:57:11;;;;;;;1.85;1.13;;;15.20;99.90;;;;;;5076447;28;20519;-76
2022/10/06 00:59:38;;;;;;;4.10;1.85;;;15.10;99.90;;;;;;5076506;28;20029;-75
2022/10/06 01:02:22;;;;;;;4.63;1.60;;;14.80;99.90;;;;;;5076412;28;20048;-76
2022/10/06 01:04:54;;;;;;;2.42;1.33;;;14.70;99.90;;;;;;5075089;28;20032;-76
2022/10/06 01:07:23;;;;;;;5.68;0.95;;;14.70;99.90;;;;;;5074930;28;20041;-76
2022/10/06 01:09:49;;;;;;;6.10;2.83;;;14.50;99.90;;;;;;5076020;28;20028;-78
2022/10/06 01:12:15;;;;;;;2.38;1.30;;;14.40;99.90;;;;;;5074375;28;20523;-76
2022/10/06 01:14:45;;;;;;;3.67;1.27;;;14.40;99.90;;;;;;5074738;28;20033;-77
2022/10/06 01:17:28;;;;;;;1.88;1.10;;;14.20;99.90;;;;;;5076263;28;20441;-76
2022/10/06 01:20:07;;;;;;;3.10;1.00;;;14.00;99.90;;;;;;5076183;28;20032;-75
2022/10/06 01:22:57;;;;;;;1.23;0.90;;;13.90;99.90;;;;;;5074759;28;20068;-73
2022/10/06 01:25:23;;;;;;;2.10;1.00;;;13.80;99.90;;;;;;5075052;28;20036;-75
2022/10/06 01:27:54;;;;;;;2.55;1.20;;;13.80;99.90;;;;;;5075921;28;20097;-77
2022/10/06 01:30:28;;;;;;;2.42;0.80;;;13.50;99.90;;;;;;5075638;28;20045;-76
2022/10/06 01:32:54;;;;;;;3.50;1.25;;;13.60;99.90;;;;;;5075967;28;20625;-80
2022/10/06 01:35:20;;;;;;;1.98;1.00;;;13.80;99.90;;;;;;5075661;28;20068;-79
2022/10/06 01:37:46;;;;;;;1.45;1.05;;;14.00;99.90;;;;;;5075589;28;20040;-79
2022/10/06 01:40:12;;;;;;;3.03;1.10;;;14.10;99.90;;;;;;5075903;28;20044;-77
2022/10/06 01:42:38;;;;;;;3.63;1.23;;;14.10;99.90;;;;;;5075832;28;20434;-77
2022/10/06 01:45:04;;;;;;;2.03;1.13;;;14.00;99.90;;;;;;5075740;28;20029;-79
2022/10/06 01:47:31;;;;;;;1.73;0.98;;;14.40;99.90;;;;;;5075593;28;20040;-77
2022/10/06 01:49:58;;;;;;;1.40;1.10;;;14.90;99.90;;;;;;5075603;28;20450;-79
2022/10/06 01:52:25;;;;;;;4.72;1.45;;;14.90;99.90;;;;;;5075516;28;20078;-77
2022/10/06 01:54:51;;;;;;;5.22;1.80;;;14.90;99.90;;;;;;5075565;28;20052;-77
2022/10/06 01:57:17;;;;;;;2.55;1.40;;;15.10;99.90;;;;;;5075206;28;20052;-78
2022/10/06 01:59:43;;;;;;;2.75;1.83;;;15.10;99.90;;;;;;5075329;28;20036;-77
2022/10/06 02:02:09;;;;;;;2.00;1.58;;;15.10;99.90;;;;;;5075309;28;20094;-77
2022/10/06 02:04:34;;;;;;;3.35;1.52;;;15.10;99.90;;;;;;5073988;28;20400;-77
2022/10/06 02:07:01;;;;;;;2.80;1.85;;;15.10;99.90;;;;;;5075237;28;20040;-78
2022/10/06 02:09:26;;;;;;;4.28;1.63;;;15.10;99.90;;;;;;5075188;28;20044;-76
2022/10/06 02:11:52;;;;;;;2.10;1.30;;;15.30;99.90;;;;;;5073584;28;20085;-75
2022/10/06 02:14:18;;;;;;;4.32;1.52;;;15.60;99.90;;;;;;5073707;28;20044;-76
2022/10/06 02:16:44;;;;;;;3.83;1.60;;;15.60;99.90;;;;;;5074694;28;20037;-75
2022/10/06 02:19:10;;;;;;;11.25;2.20;;;15.60;99.90;;;;;;5074969;28;20047;-76
2022/10/06 02:21:36;;;;;;;2.72;1.25;;;15.60;99.90;;;;;;5073653;28;20040;-76
2022/10/06 02:24:02;;;;;;;4.75;1.88;;;15.60;99.90;;;;;;5074900;28;20049;-79
2022/10/06 02:26:27;;;;;;;2.83;1.77;;;15.50;99.90;;;;;;5074853;28;20105;-77
2022/10/06 02:28:53;;;;;;;3.08;1.60;;;15.60;99.90;;;;;;5074452;28;20139;-75
2022/10/06 02:31:19;;;;;;;2.80;1.60;;;15.60;99.90;;;;;;5073294;28;20365;-74
2022/10/06 02:33:45;;;;;;;5.60;2.13;;;15.60;99.90;;;;;;5073441;28;20036;-75
2022/10/06 02:36:13;;;;;;;4.90;1.30;;;15.40;99.90;;;;;;5073088;28;20035;-76
2022/10/06 02:38:40;;;;;;;20.25;4.35;;;15.10;99.90;;;;;;5074477;28;20139;-78
2022/10/06 02:41:06;;;;;;;43.03;10.13;;;14.90;99.90;;;;;;5073245;28;20036;-77
2022/10/06 02:43:33;;;;;;;7.43;3.25;;;14.90;99.90;;;;;;5074601;28;20044;-76
2022/10/06 02:46:10;;;;;;;26.55;8.02;;;14.80;99.90;;;;;;5073907;28;20120;-77
2022/10/06 02:48:36;;;;;;;13.13;4.43;;;14.80;99.90;;;;;;5074477;28;20032;-77
2022/10/06 02:51:08;;;;;;;6.25;1.58;;;14.80;99.90;;;;;;5074232;28;20047;-78
2022/10/06 02:53:35;;;;;;;4.65;1.60;;;14.80;99.90;;;;;;5074409;28;20040;-78
2022/10/06 02:56:05;;;;;;;2.78;1.52;;;14.90;99.90;;;;;;5074366;28;20044;-77
2022/10/06 02:58:31;;;;;;;4.22;1.83;;;14.90;99.90;;;;;;5074003;28;20403;-77
2022/10/06 03:01:22;;;;;;;5.82;2.20;;;15.00;99.90;;;;;;5074308;28;20051;-77
2022/10/06 03:03:48;;;;;;;;;;;15.10;99.90;;;;;;5073974;28;20041;-77
2022/10/06 03:06:23;;;;;;;7.20;2.70;;;15.10;99.90;;;;;;5074011;28;19912;-77
2022/10/06 03:08:49;;;;;;;3.40;1.77;;;15.10;99.90;;;;;;5073983;28;20535;-77
2022/10/06 03:11:15;;;;;;;2.72;1.83;;;15.10;99.90;;;;;;5074021;28;20038;-77
2022/10/06 03:13:41;;;;;;;2.00;1.40;;;15.20;99.90;;;;;;5073612;28;20124;-76
2022/10/06 03:16:21;;;;;;;2.67;1.52;;;15.20;99.90;;;;;;5073982;28;20127;-76
2022/10/06 03:18:49;;;;;;;3.85;1.52;;;15.10;99.90;;;;;;5073933;28;20040;-80
2022/10/06 03:21:16;;;;;;;2.90;1.75;;;15.10;99.90;;;;;;5073801;28;20127;-78
2022/10/06 03:23:43;;;;;;;2.63;1.75;;;15.10;99.90;;;;;;5073925;28;20067;-76
2022/10/06 03:26:10;;;;;;;2.95;1.77;;;15.20;99.90;;;;;;5074049;28;20479;-77
2022/10/06 03:28:36;;;;;;;4.13;1.98;;;15.20;99.90;;;;;;5072664;28;20044;-75
2022/10/06 03:31:03;;;;;;;2.63;1.70;;;15.40;99.90;;;;;;5073977;28;20040;-77
2022/10/06 03:33:30;;;;;;;3.65;1.90;;;15.40;99.90;;;;;;5073420;28;20072;-75
2022/10/06 03:36:09;;;;;;;5.57;1.70;;;15.50;99.90;;;;;;5073822;28;20044;-78
2022/10/06 03:38:35;;;;;;;2.75;1.70;;;15.50;99.90;;;;;;5073904;28;20059;-76
2022/10/06 03:41:07;;;;;;;9.23;1.83;;;15.50;99.90;;;;;;5073808;28;20515;-79
2022/10/06 03:43:34;;;;;;;3.17;2.03;;;15.50;99.90;;;;;;5073977;28;20476;-76
2022/10/06 03:46:01;;;;;;;3.83;2.00;;;15.50;99.90;;;;;;5073870;28;20040;-78
2022/10/06 03:48:29;;;;;;;4.72;1.80;;;15.60;99.90;;;;;;5072415;28;20040;-76
2022/10/06 03:50:56;;;;;;;4.85;1.55;;;15.60;99.90;;;;;;5072496;28;20028;-76
2022/10/06 03:53:26;;;;;;;4.28;1.60;;;15.40;99.90;;;;;;5072386;28;20681;-77
2022/10/06 03:56:21;;;;;;;3.45;1.40;;;15.30;99.90;;;;;;5073660;28;20039;-77
2022/10/06 03:58:52;;;;;;;6.75;1.67;;;15.30;99.90;;;;;;5071783;28;20067;-77
2022/10/06 04:01:24;;;;;;;3.58;1.52;;;15.10;99.90;;;;;;5077072;28;20044;-76
2022/10/06 04:03:50;;;;;;;1.60;1.25;;;15.10;99.90;;;;;;5076447;28;20040;-76
2022/10/06 04:06:18;;;;;;;2.83;1.50;;;15.20;99.90;;;;;;5076276;28;20037;-76
2022/10/06 04:08:46;;;;;;;6.35;1.77;;;15.20;99.90;;;;;;5077415;28;20067;-76
2022/10/06 04:11:23;;;;;;;3.53;1.70;;;15.10;99.90;;;;;;5077334;28;20048;-76
2022/10/06 04:13:55;;;;;;;5.97;2.10;;;15.20;99.90;;;;;;5077437;28;20044;-76
2022/10/06 04:16:27;;;;;;;4.00;2.00;;;15.10;99.90;;;;;;5076101;28;20450;-76
2022/10/06 04:18:55;;;;;;;5.25;1.73;;;15.10;99.90;;;;;;5076194;28;20048;-77
2022/10/06 04:21:22;;;;;;;3.20;1.85;;;15.10;99.90;;;;;;5077806;28;20418;-78
2022/10/06 04:23:48;;;;;;;2.83;1.85;;;15.10;99.90;;;;;;5077092;28;20044;-79
2022/10/06 04:26:17;;;;;;;6.45;1.58;;;15.20;99.90;;;;;;5075722;28;20040;-76
2022/10/06 04:28:44;;;;;;;3.90;1.95;;;15.10;99.90;;;;;;5076946;28;20043;-76
2022/10/06 04:31:14;;;;;;;4.70;1.80;;;15.00;99.90;;;;;;5077110;28;20040;-77
2022/10/06 04:33:40;;;;;;;5.13;1.73;;;15.00;99.90;;;;;;5077056;28;20153;-76
2022/10/06 04:36:07;;;;;;;5.45;1.77;;;15.00;99.90;;;;;;5070674;28;20048;-78
2022/10/06 04:38:34;;;;;;;2.47;1.55;;;15.00;99.90;;;;;;5054929;28;20049;-80
2022/10/06 04:41:12;;;;;;;4.75;1.73;;;14.90;99.90;;;;;;5075347;28;20033;-78
2022/10/06 04:43:39;;;;;;;6.15;1.65;;;15.00;99.90;;;;;;5075223;28;20495;-79
2022/10/06 04:46:05;;;;;;;6.38;1.85;;;15.10;99.90;;;;;;5074122;28;20029;-77
2022/10/06 04:48:31;;;;;;;3.05;1.38;;;15.10;99.90;;;;;;5074628;28;20618;-79
2022/10/06 04:51:05;;;;;;;3.95;1.67;;;15.10;99.90;;;;;;5056340;28;20044;-79
2022/10/06 04:53:31;;;;;;;6.38;1.75;;;15.10;99.90;;;;;;5056397;28;20041;-77
2022/10/06 04:56:06;;;;;;;5.40;2.33;;;15.00;99.90;;;;;;5056690;28;20075;-77
2022/10/06 04:58:42;;;;;;;6.13;2.03;;;14.60;99.90;;;;;;5056950;28;20058;-78
2022/10/06 05:01:21;;;;;;;2.22;1.35;;;14.60;99.90;;;;;;5075841;28;20059;-77
2022/10/06 05:03:49;;;;;;;13.07;3.10;;;14.70;99.90;;;;;;5076459;28;20044;-77
2022/10/06 05:06:19;;;;;;;7.00;1.92;;;15.00;99.90;;;;;;5076347;28;20040;-77
2022/10/06 05:08:56;;;;;;;5.68;2.10;;;15.10;99.90;;;;;;5074087;28;20072;-78
2022/10/06 05:11:23;;;;;;;4.72;1.52;;;15.00;99.90;;;;;;5074623;28;20123;-76
2022/10/06 05:13:50;;;;;;;4.43;1.75;;;14.90;99.90;;;;;;5074470;28;20036;-76
2022/10/06 05:16:16;;;;;;;2.70;1.80;;;14.90;99.90;;;;;;5076371;28;20074;-80
2022/10/06 05:18:43;;;;;;;3.25;1.95;;;14.70;99.90;;;;;;5076123;28;20052;-77
2022/10/06 05:21:14;;;;;;;2.63;1.60;;;14.70;99.90;;;;;;5076130;28;20044;-77
2022/10/06 05:23:41;;;;;;;5.63;1.80;;;14.70;99.90;;;;;;5076018;28;20047;-77
2022/10/06 05:26:10;;;;;;;2.97;1.40;;;14.60;99.90;;;;;;5073843;28;20035;-78
2022/10/06 05:28:36;;;;;;;4.28;1.92;;;14.60;99.90;;;;;;5074764;28;20051;-80
2022/10/06 05:31:09;;;;;;;5.20;1.88;;;14.70;99.90;;;;;;5075240;28;20618;-77
2022/10/06 05:33:35;;;;;;;5.60;1.63;;;14.60;99.90;;;;;;5074555;28;20086;-77
2022/10/06 05:36:05;;;;;;;5.95;1.90;;;14.50;99.90;;;;;;5075372;28;20515;-77
2022/10/06 05:38:32;;;;;;;9.63;1.80;;;14.50;99.90;;;;;;5074566;28;20048;-77
2022/10/06 05:41:06;;;;;;;4.32;1.77;;;14.50;99.90;;;;;;5075587;28;20124;-76
2022/10/06 05:43:35;;;;;;;3.88;2.67;;;14.50;99.90;;;;;;5075575;28;20045;-77
2022/10/06 05:46:04;;;;;;;6.15;1.77;;;14.50;99.90;;;;;;5074239;28;20400;-77
2022/10/06 05:48:29;;;;;;;7.38;2.35;;;14.50;99.90;;;;;;5075635;28;20127;-77
2022/10/06 05:51:04;;;;;;;2.80;2.13;;;14.50;99.90;;;;;;5074370;28;20071;-77
2022/10/06 05:53:32;;;;;;;6.88;2.20;;;14.60;99.90;;;;;;5074215;28;20502;-78
2022/10/06 05:56:10;;;;;;;9.45;1.85;;;14.50;99.90;;;;;;5075562;28;20620;-76
2022/10/06 05:58:38;;;;;;;6.85;2.22;;;14.60;99.90;;;;;;5075127;28;20143;-77
2022/10/06 06:01:08;;;;;;;2.78;1.98;;;14.60;99.90;;;;;;5075378;28;20040;-77
2022/10/06 06:03:33;;;;;;;19.77;2.65;;;14.70;99.90;;;;;;5075394;28;20518;-76
2022/10/06 06:05:59;;;;;;;4.70;2.25;;;14.70;99.90;;;;;;5073925;28;20028;-79
2022/10/06 06:08:25;;;;;;;6.82;2.10;;;14.60;99.90;;;;;;5075078;28;20044;-73
2022/10/06 06:10:51;;;;;;;4.93;2.03;;;14.70;99.90;;;;;;5073815;28;20032;-72
2022/10/06 06:13:21;;;;;;;7.68;2.25;;;14.60;99.90;;;;;;5074533;28;20047;-73
2022/10/06 06:15:59;;;;;;;3.50;1.70;;;14.60;99.90;;;;;;5075135;28;20040;-72
2022/10/06 06:18:25;;;;;;;11.77;2.80;;;14.40;99.90;;;;;;5074951;28;20055;-72
2022/10/06 06:21:10;;;;;;;3.30;1.73;;;14.50;99.90;;;;;;5074512;28;20032;-72
2022/10/06 06:23:39;;;;;;;4.80;2.03;;;14.60;99.90;;;;;;5074138;28;20496;-73
2022/10/06 06:26:07;;;;;;;5.80;2.22;;;14.60;99.90;;;;;;5074970;28;20072;-72
2022/10/06 06:28:35;;;;;;;3.95;2.35;;;14.60;99.90;;;;;;5074804;28;20039;-72
2022/10/06 06:31:02;;;;;;;2.35;1.55;;;14.70;99.90;;;;;;5074736;28;20029;-73
2022/10/06 06:33:29;;;;;;;4.43;2.40;;;14.80;99.90;;;;;;5072873;28;20496;-77
2022/10/06 06:36:02;;;;;;;7.10;2.83;;;14.80;99.90;;;;;;5071202;28;20040;-72
2022/10/06 06:38:31;;;;;;;11.80;2.40;;;14.80;99.90;;;;;;5072324;28;20067;-75
2022/10/06 06:40:56;;;;;;;7.15;2.53;;;14.80;99.90;;;;;;5072803;28;20116;-72
2022/10/06 06:43:22;;;;;;;4.20;2.05;;;14.80;99.90;;;;;;5059177;28;20559;-74
2022/10/06 06:45:48;;;;;;;4.20;2.20;;;14.70;99.90;;;;;;5067592;28;20400;-72
2022/10/06 06:48:15;;;;;;;8.70;2.17;;;14.80;99.90;;;;;;5055093;28;20029;-72
2022/10/06 06:50:42;;;;;;;6.13;2.20;;;14.70;99.90;;;;;;5052076;28;20125;-74
2022/10/06 06:53:08;;;;;;;7.82;2.40;;;14.60;99.90;;;;;;5068768;28;20039;-74
2022/10/06 06:55:33;;;;;;;2.97;1.88;;;14.50;99.90;;;;;;5072268;28;20032;-72
2022/10/06 06:57:59;;;;;;;3.15;2.08;;;14.60;99.90;;;;;;5072451;28;20044;-72
2022/10/06 07:00:25;;;;;;;8.02;2.20;;;14.70;99.90;;;;;;5059618;28;20021;-72
2022/10/06 07:02:59;;;;;;;4.78;2.05;;;15.00;99.90;;;;;;5050787;28;20049;-72
2022/10/06 07:05:26;;;;;;;3.33;2.33;;;15.20;99.90;;;;;;5052793;28;20124;-71
2022/10/06 07:07:52;;;;;;;7.97;2.13;;;;;;;;;;5052696;28;20053;-69
2022/10/06 07:10:17;;;;;;;3.83;2.35;;;15.40;99.90;;;;;;5051596;28;20079;-72
2022/10/06 07:12:45;;;;;;;7.45;2.10;;;15.80;99.90;;;;;;5050668;28;20068;-72
2022/10/06 07:26:07;;;;;;;8.25;2.33;;;16.30;99.90;;;;;;5053661;28;20238;-72
2022/10/06 07:28:33;;;;;;;3.35;2.20;;;16.00;99.90;;;;;;5052353;28;20139;-73
2022/10/06 07:30:59;;;;;;;6.88;2.35;;;16.00;99.90;;;;;;5052480;28;20052;-73
2022/10/06 07:33:31;;;;;;;6.47;2.10;;;16.00;99.90;;;;;;5051474;28;20044;-73
2022/10/06 07:35:57;;;;;;;6.13;2.13;;;15.90;99.90;;;;;;5050751;28;20163;-74
2022/10/06 07:38:26;;;;;;;7.68;2.03;;;16.00;99.90;;;;;;5051312;28;20091;-80
2022/10/06 07:40:56;;;;;;;2.03;1.75;;;15.90;99.90;;;;;;5051725;28;20041;-77
2022/10/06 07:43:22;;;;;;;4.77;2.10;;;15.80;99.90;;;;;;5066270;28;20051;-77
2022/10/06 07:45:48;;;;;;;4.40;1.95;;;15.90;99.90;;;;;;5070880;28;20033;-77
2022/10/06 07:48:19;;;;;;;9.52;2.75;;;15.90;99.90;;;;;;5069365;28;20075;-80
2022/10/06 07:50:48;;;;;;;2.30;1.80;;;15.90;99.90;;;;;;5071519;28;20040;-78
2022/10/06 07:53:16;;;;;;;10.88;2.10;;;15.90;99.90;;;;;;5070923;28;20072;-77
2022/10/06 07:55:44;;;;;;;4.70;2.30;;;15.80;99.90;;;;;;5071194;28;20157;-79
2022/10/06 07:58:19;;;;;;;6.15;3.15;;;15.80;99.90;;;;;;5069762;28;20158;-79
2022/10/06 08:00:47;;;;;;;7.22;2.40;;;15.80;99.90;;;;;;5069547;28;20076;-76
2022/10/06 08:03:16;;;;;;;7.85;3.13;;;15.80;99.90;;;;;;5070856;28;20102;-79
2022/10/06 08:05:55;;;;;;;4.68;2.35;;;15.80;99.90;;;;;;5071171;28;20561;-78
2022/10/06 08:08:21;;;;;;;3.42;2.25;;;15.80;99.90;;;;;;5071337;28;20055;-77
2022/10/06 08:10:52;;;;;;;5.55;2.60;;;15.80;99.90;;;;;;5069992;28;20036;-74
2022/10/06 08:13:18;;;;;;;10.23;2.63;;;15.70;99.90;;;;;;5069501;28;20036;-75
2022/10/06 08:15:44;;;;;;;5.90;2.55;;;16.00;99.90;;;;;;5071144;28;20041;-77
2022/10/06 08:18:13;;;;;;;8.27;2.42;;;16.20;99.90;;;;;;5070945;28;20044;-77
2022/10/06 08:20:40;;;;;;;7.30;2.38;;;16.20;99.90;;;;;;5071298;28;20095;-76
2022/10/06 08:23:07;;;;;;;6.22;2.22;;;16.10;99.90;;;;;;5071047;28;20488;-79
2022/10/06 08:25:41;;;;;;;7.70;2.40;;;15.80;99.90;;;;;;5070949;28;20036;-76
2022/10/06 08:28:07;;;;;;;8.20;2.50;;;15.80;99.90;;;;;;5070126;28;20033;-75
2022/10/06 08:30:33;;;;;;;6.07;2.88;;;15.80;99.90;;;;;;5071295;28;20040;-76
2022/10/06 08:32:59;;;;;;;5.47;2.15;;;15.80;99.90;;;;;;5070344;28;20048;-74
2022/10/06 08:35:25;;;;;;;10.32;2.55;;;15.90;99.90;;;;;;5069215;28;20139;-74
2022/10/06 08:37:52;;;;;;;5.32;2.78;;;15.90;99.90;;;;;;5071196;28;20602;-72
2022/10/06 08:40:18;;;;;;;4.32;2.40;;;15.80;99.90;;;;;;5070759;28;20044;-71
2022/10/06 08:42:48;;;;;;;3.88;3.03;;;15.80;99.90;;;;;;5069718;28;20388;-71
2022/10/06 08:45:24;;;;;;;6.60;3.37;;;15.80;99.90;;;;;;5071280;28;20041;-71
2022/10/06 08:48:06;;;;;;;8.13;3.45;;;15.80;99.90;;;;;;5074666;28;20055;-72
2022/10/06 08:50:44;;;;;;;4.25;2.55;;;15.60;99.90;;;;;;5071116;28;20047;-71
2022/10/06 08:53:24;;;;;;;7.18;3.13;;;15.70;99.90;;;;;;5070583;28;20033;-76
2022/10/06 08:56:16;;;;;;;8.63;3.20;;;15.50;99.90;;;;;;5054084;28;20039;-74
2022/10/06 08:58:52;;;;;;;5.75;3.30;;;15.50;99.90;;;;;;5053804;28;20056;-76
2022/10/06 09:01:50;;;;;;;6.30;4.05;;;15.50;99.90;;;;;;5054067;28;20033;-81
2022/10/06 09:04:27;;;;;;;9.05;3.08;;;15.60;99.90;;;;;;5053883;28;20048;-79
2022/10/06 09:07:12;;;;;;;9.13;3.13;;;15.70;99.90;;;;;;5054125;28;20135;-70
2022/10/06 09:10:18;;;;;;;5.75;2.70;;;15.80;99.90;;;;;;5054184;28;20519;-72
2022/10/06 09:13:09;;;;;;;5.65;3.42;;;15.90;99.90;;;;;;5072592;28;20431;-73
2022/10/06 09:15:49;;;;;;;7.28;3.33;;;16.00;99.90;;;;;;5068569;28;20080;-76
2022/10/06 09:18:21;;;;;;;4.87;3.07;;;16.10;99.90;;;;;;5073442;28;20054;-76
2022/10/06 09:21:00;;;;;;;13.48;4.07;;;16.60;99.90;;;;;;5073887;28;20263;-76
2022/10/06 09:23:46;;;;;;;6.15;3.67;;;16.60;99.90;;;;;;5072597;28;20036;-75
2022/10/06 09:26:23;;;;;;;8.65;4.43;;;16.20;99.90;;;;;;5072048;28;20043;-83
2022/10/06 09:28:50;;;;;;;7.95;3.65;;;16.10;99.90;;;;;;5072371;28;20032;-78
2022/10/06 09:31:27;;;;;;;5.78;3.10;;;16.10;99.90;;;;;;5073425;28;20045;-74
2022/10/06 09:34:11;;;;;;;7.53;3.25;;;15.90;99.90;;;;;;5071547;28;20060;-74
2022/10/06 09:36:58;;;;;;;10.82;4.00;;;16.00;99.90;;;;;;5072940;28;20062;-75
2022/10/06 09:39:25;;;;;;;12.68;4.25;;;15.80;99.90;;;;;;5070962;28;20036;-75
2022/10/06 09:41:53;;;;;;;13.48;3.88;;;15.80;99.90;;;;;;5071258;28;20055;-75
2022/10/06 09:44:26;;;;;;;9.48;4.47;;;15.90;99.90;;;;;;5070905;28;20060;-75
2022/10/06 09:46:52;;;;;;;10.50;3.38;;;15.80;99.90;;;;;;5070811;28;20090;-75
2022/10/06 09:49:23;;;;;;;8.65;3.03;;;15.70;99.90;;;;;;5073166;28;20127;-75
2022/10/06 09:52:14;;;;;;;7.30;3.08;;;15.70;99.90;;;;;;5073588;28;20037;-75
2022/10/06 09:54:43;;;;;;;;;;;15.70;99.90;;;;;;5073894;28;20495;-75
2022/10/06 09:57:20;;;;;;;7.05;2.80;;;15.70;99.90;;;;;;5073220;28;19912;-75
2022/10/06 09:59:47;;;;;;;3.92;2.65;;;15.70;99.90;;;;;;5073648;28;20149;-75
2022/10/06 10:02:35;;;;;;;7.18;3.08;;;15.60;99.90;;;;;;5073387;28;20496;-75
2022/10/06 10:05:07;;;;;;;7.07;2.67;;;15.70;99.90;;;;;;5073155;28;20388;-75
2022/10/06 10:07:35;;;;;;;4.25;2.65;;;15.80;99.90;;;;;;5073483;28;20037;-73
2022/10/06 10:10:22;;;;;;;7.40;2.47;;;15.90;99.90;;;;;;5075323;28;20072;-75
2022/10/06 10:12:58;;;;;;;6.05;2.53;;;15.90;99.90;;;;;;5073775;28;20388;-75
2022/10/06 10:15:29;;;;;;;4.47;2.40;;;16.10;99.90;;;;;;5064037;28;20559;-75
2022/10/06 10:17:58;;;;;;;6.40;3.15;;;16.50;99.90;;;;;;5071732;28;20097;-73
2022/10/06 10:20:27;;;;;;;4.60;2.42;;;16.50;99.90;;;;;;5073717;28;20048;-76
2022/10/06 10:22:58;;;;;;;7.28;3.28;;;16.90;99.90;;;;;;5064179;28;20959;-77
2022/10/06 10:25:39;;;;;;;5.97;2.72;;;17.40;99.90;;;;;;5052324;28;20072;-76
2022/10/06 10:28:16;;;;;;;4.00;2.50;;;17.80;99.90;;;;;;5051058;28;20076;-74
2022/10/06 10:31:02;;;;;;;6.63;2.60;;;18.20;99.90;;;;;;5050232;28;20044;-75
2022/10/06 10:33:59;;;;;;;5.80;2.47;;;18.20;99.90;;;;;;5050965;28;20044;-77
2022/10/06 10:36:49;;;;;;;6.78;2.60;;;18.50;99.90;;;;;;5050835;28;20059;-76
2022/10/06 10:39:39;;;;;;;4.85;3.05;;;18.50;99.90;;;;;;5052107;28;20041;-73
2022/10/06 10:42:31;;;;;;;5.93;2.35;;;19.00;99.90;;;;;;5048891;28;20044;-78
2022/10/06 10:45:09;;;;;;;6.60;2.85;;;19.80;99.90;;;;;;5051476;28;20119;-77
2022/10/06 10:47:43;;;;;;;4.78;2.20;;;18.80;99.90;;;;;;5052440;28;20044;-76
2022/10/06 10:50:30;;;;;;;6.25;2.22;;;18.20;99.90;;;;;;5052144;28;20041;-77
2022/10/06 10:53:21;;;;;;;6.47;2.63;;;17.80;99.90;;;;;;5050972;28;20040;-76
2022/10/06 10:55:49;;;;;;;4.72;2.67;;;17.60;99.90;;;;;;5052205;28;20041;-76
2022/10/06 10:58:24;;;;;;;8.43;2.67;;;17.60;99.90;;;;;;5051499;28;20408;-77
2022/10/06 11:00:55;;;;;;;6.45;2.88;;;18.20;99.90;;;;;;5051861;28;20033;-77
2022/10/06 11:03:24;;;;;;;4.80;2.30;;;18.30;99.90;;;;;;5050356;28;20094;-77
2022/10/06 11:06:00;;;;;;;6.63;2.75;;;19.30;99.90;;;;;;5051962;28;20033;-76
2022/10/06 11:08:39;;;;;;;6.43;2.50;;;19.30;99.90;;;;;;5051541;28;20047;-76
2022/10/06 11:11:18;;;;;;;4.45;2.00;;;18.90;99.90;;;;;;5050557;28;20036;-76
2022/10/06 11:13:49;;;;;;;5.30;2.50;;;19.00;99.90;;;;;;5050431;28;20140;-76
2022/10/06 11:16:45;;;;;;;4.93;2.30;;;19.20;99.90;;;;;;5050181;28;20508;-77
2022/10/06 11:19:40;;;;;;;5.30;2.15;;;19.40;99.90;;;;;;5050433;28;20076;-76
2022/10/06 11:22:21;;;;;;;5.93;2.78;;;19.30;99.90;;;;;;5051223;28;20086;-76
2022/10/06 11:25:03;;;;;;;4.30;2.53;;;18.60;99.90;;;;;;5050254;28;20040;-76
2022/10/06 11:27:57;;;;;;;10.75;2.75;;;18.80;99.90;;;;;;5052061;28;20068;-77
2022/10/06 11:30:26;;;;;;;5.63;1.95;;;19.50;99.90;;;;;;5051608;28;20048;-73
2022/10/06 11:33:02;;;;;;;6.20;2.70;;;19.60;99.90;;;;;;5050804;28;20460;-78
2022/10/06 11:35:40;;;;;;;3.95;2.20;;;19.40;99.90;;;;;;5051807;28;20499;-78
2022/10/06 11:38:26;;;;;;;5.28;2.30;;;19.10;99.90;;;;;;5049688;28;20055;-75
2022/10/06 11:40:57;;;;;;;9.02;2.65;;;19.00;99.90;;;;;;5051407;28;20068;-76
2022/10/06 11:43:45;;;;;;;8.45;2.63;;;19.10;99.90;;;;;;5050149;28;20514;-77
2022/10/06 11:46:44;;;;;;;3.67;2.30;;;18.80;99.90;;;;;;5051523;28;20183;-77
2022/10/06 11:49:28;;;;;;;3.88;1.88;;;19.30;99.90;;;;;;5051226;28;20481;-76
2022/10/06 11:52:17;;;;;;;7.22;2.42;;;19.20;99.90;;;;;;5049938;28;20587;-76
2022/10/06 11:54:54;;;;;;;10.85;2.83;;;19.10;99.90;;;;;;5046930;28;20037;-76
2022/10/06 11:57:26;;;;;;;2.53;1.85;;;18.90;99.90;;;;;;5049620;28;20041;-76
2022/10/06 12:00:01;;;;;;;7.80;2.45;;;18.90;99.90;;;;;;5050211;28;20045;-76
2022/10/06 12:02:29;;;;;;;5.47;2.20;;;19.00;99.90;;;;;;5051764;28;20032;-76
2022/10/06 12:05:13;;;;;;;8.43;3.85;;;19.00;99.90;;;;;;5051173;28;20079;-76
2022/10/06 12:07:51;;;;;;;5.75;2.35;;;19.10;99.90;;;;;;5059371;28;20439;-76
2022/10/06 12:10:31;;;;;;;7.95;3.13;;;19.20;99.90;;;;;;5071187;28;20365;-77
2022/10/06 12:13:18;;;;;;;8.05;2.67;;;19.20;99.90;;;;;;5070361;28;20048;-76
2022/10/06 12:15:57;;;;;;;4.05;2.53;;;19.20;99.90;;;;;;5071378;28;20094;-76
2022/10/06 12:18:33;;;;;;;6.22;2.88;;;18.90;99.90;;;;;;5069634;28;20044;-76
2022/10/06 12:21:18;;;;;;;5.72;2.40;;;18.80;99.90;;;;;;5073205;28;20062;-76
2022/10/06 12:23:55;;;;;;;7.75;2.53;;;18.70;99.90;;;;;;5073936;28;20072;-76
2022/10/06 12:26:55;;;;;;;8.18;2.92;;;18.60;99.90;;;;;;5074838;28;20047;-76
2022/10/06 12:29:49;;;;;;;10.43;1.90;;;18.60;99.90;;;;;;5067837;28;20079;-76
2022/10/06 12:32:53;;;;;;;6.13;2.53;;;18.60;99.90;;;;;;5053591;28;20083;-76
2022/10/06 12:35:59;;;;;;;5.65;2.42;;;18.80;99.90;;;;;;5054360;28;20047;-76
2022/10/06 12:38:40;;;;;;;10.38;2.42;;;18.70;99.90;;;;;;5052921;28;20059;-77
2022/10/06 12:41:10;;;;;;;5.93;2.40;;;18.70;99.90;;;;;;5054636;28;20033;-76
2022/10/06 12:43:56;;;;;;;6.60;2.40;;;18.60;99.90;;;;;;5054906;28;20041;-76
2022/10/06 12:46:33;;;;;;;3.97;1.95;;;18.90;99.90;;;;;;5054096;28;20526;-76
2022/10/06 12:49:10;;;;;;;7.13;3.17;;;19.10;99.90;;;;;;5055502;28;20033;-76
2022/10/06 12:51:41;;;;;;;5.97;2.47;;;19.30;99.90;;;;;;5074534;28;20063;-77
2022/10/06 12:54:21;;;;;;;;;;;19.50;99.90;;;;;;5075183;28;20028;-75
2022/10/06 12:57:15;;;;;;;4.43;2.40;;;19.80;99.90;;;;;;5073498;28;19908;-79
2022/10/06 12:59:41;;;;;;;8.50;2.50;;;19.80;99.90;;;;;;5067806;28;20040;-77
2022/10/06 13:02:27;;;;;;;3.88;2.42;;;19.80;99.90;;;;;;5054010;28;20404;-79
2022/10/06 13:05:10;;;;;;;4.70;2.22;;;19.70;99.90;;;;;;5052736;28;20056;-79
2022/10/06 13:07:57;;;;;;;7.53;2.38;;;19.60;99.90;;;;;;5056112;28;20068;-74
2022/10/06 13:10:24;;;;;;;3.70;1.80;;;19.90;99.90;;;;;;5061469;28;20516;-79
2022/10/06 13:12:51;;;;;;;4.18;2.03;;;19.80;99.90;;;;;;5052956;28;20037;-79
2022/10/06 13:15:26;;;;;;;7.70;2.58;;;19.60;99.90;;;;;;5068116;28;20157;-76
2022/10/06 13:18:10;;;;;;;2.78;1.48;;;19.40;99.90;;;;;;5075642;28;20041;-78
2022/10/06 13:20:50;;;;;;;11.70;2.28;;;19.20;99.90;;;;;;5074147;28;20043;-78
2022/10/06 13:23:36;;;;;;;9.50;1.70;;;19.00;99.90;;;;;;5061037;28;20044;-78
2022/10/06 13:26:06;;;;;;;2.55;1.67;;;18.80;99.90;;;;;;5051728;28;20813;-79